sensor_id;sensor_type;location;lat;lon;timestamp;temperature;humidity
3067;DHT22;1544;48.834;9.194;2022-12-07T00:01:45;5.60;57.10
3067;DHT22;1544;48.834;9.194;2022-12-07T00:04:21;5.60;56.90
3067;DHT22;1544;48.834;9.194;2022-12-07T00:06:56;5.60;57.10
3067;DHT22;1544;48.834;9.194;2022-12-07T00:09:31;5.20;56.80
3067;DHT22;1544;48.834;9.194;2022-12-07T00:12:05;5.60;57.10
3067;DHT22;1544;48.834;9.194;2022-12-07T00:14:40;5.60;57.30
3067;DHT22;1544;48.834;9.194;2022-12-07T00:17:15;5.60;57.10
3067;DHT22;1544;48.834;9.194;2022-12-07T00:19:50;5.70;56.70
3067;DHT22;1544;48.834;9.194;2022-12-07T00:22:25;5.70;56.00
3067;DHT22;1544;48.834;9.194;2022-12-07T00:25:00;5.70;55.90
3067;DHT22;1544;48.834;9.194;2022-12-07T00:27:35;5.70;55.60
3067;DHT22;1544;48.834;9.194;2022-12-07T00:30:10;5.60;55.70
3067;DHT22;1544;48.834;9.194;2022-12-07T00:32:45;5.60;56.10
3067;DHT22;1544;48.834;9.194;2022-12-07T00:35:20;5.60;56.30
3067;DHT22;1544;48.834;9.194;2022-12-07T00:37:55;5.60;56.30
3067;DHT22;1544;48.834;9.194;2022-12-07T00:40:30;5.60;56.00
3067;DHT22;1544;48.834;9.194;2022-12-07T00:43:05;5.60;56.00
3067;DHT22;1544;48.834;9.194;2022-12-07T00:45:40;5.50;55.50
3067;DHT22;1544;48.834;9.194;2022-12-07T00:48:15;5.50;55.60
3067;DHT22;1544;48.834;9.194;2022-12-07T00:50:50;5.50;55.60
3067;DHT22;1544;48.834;9.194;2022-12-07T00:53:26;5.50;54.70
3067;DHT22;1544;48.834;9.194;2022-12-07T00:56:23;5.50;54.50
3067;DHT22;1544;48.834;9.194;2022-12-07T00:59:02;5.50;54.00
3067;DHT22;1544;48.834;9.194;2022-12-07T01:01:38;5.50;54.10
3067;DHT22;1544;48.834;9.194;2022-12-07T01:04:13;5.50;53.80
3067;DHT22;1544;48.834;9.194;2022-12-07T01:06:48;5.40;53.70
3067;DHT22;1544;48.834;9.194;2022-12-07T01:09:23;5.40;53.70
3067;DHT22;1544;48.834;9.194;2022-12-07T01:11:58;5.40;52.90
3067;DHT22;1544;48.834;9.194;2022-12-07T01:14:33;5.40;52.60
3067;DHT22;1544;48.834;9.194;2022-12-07T01:17:07;5.40;52.20
3067;DHT22;1544;48.834;9.194;2022-12-07T01:19:43;5.40;53.00
3067;DHT22;1544;48.834;9.194;2022-12-07T01:22:18;5.40;52.40
3067;DHT22;1544;48.834;9.194;2022-12-07T01:24:53;5.40;51.70
3067;DHT22;1544;48.834;9.194;2022-12-07T01:27:27;5.40;52.00
3067;DHT22;1544;48.834;9.194;2022-12-07T01:30:05;5.40;51.70
3067;DHT22;1544;48.834;9.194;2022-12-07T01:32:41;5.30;51.60
3067;DHT22;1544;48.834;9.194;2022-12-07T01:35:16;5.40;51.60
3067;DHT22;1544;48.834;9.194;2022-12-07T01:37:51;5.30;51.60
3067;DHT22;1544;48.834;9.194;2022-12-07T01:40:26;5.30;51.10
3067;DHT22;1544;48.834;9.194;2022-12-07T01:43:01;5.30;51.30
3067;DHT22;1544;48.834;9.194;2022-12-07T01:45:41;5.30;51.10
3067;DHT22;1544;48.834;9.194;2022-12-07T01:48:19;5.30;50.80
3067;DHT22;1544;48.834;9.194;2022-12-07T01:51:01;5.30;50.90
3067;DHT22;1544;48.834;9.194;2022-12-07T01:53:42;5.30;51.10
3067;DHT22;1544;48.834;9.194;2022-12-07T01:56:20;7.90;53.60
3067;DHT22;1544;48.834;9.194;2022-12-07T01:58:59;5.30;51.90
3067;DHT22;1544;48.834;9.194;2022-12-07T02:01:34;5.30;52.60
3067;DHT22;1544;48.834;9.194;2022-12-07T02:04:10;5.30;52.60
3067;DHT22;1544;48.834;9.194;2022-12-07T02:06:46;5.30;52.80
3067;DHT22;1544;48.834;9.194;2022-12-07T02:09:21;5.30;53.20
3067;DHT22;1544;48.834;9.194;2022-12-07T02:11:56;5.30;53.20
3067;DHT22;1544;48.834;9.194;2022-12-07T02:14:31;5.30;53.20
3067;DHT22;1544;48.834;9.194;2022-12-07T02:21:22;5.30;53.50
3067;DHT22;1544;48.834;9.194;2022-12-07T02:30:06;5.30;53.40
3067;DHT22;1544;48.834;9.194;2022-12-07T02:35:46;5.30;53.70
3067;DHT22;1544;48.834;9.194;2022-12-07T02:38:58;5.30;53.70
3067;DHT22;1544;48.834;9.194;2022-12-07T02:41:43;5.30;54.00
3067;DHT22;1544;48.834;9.194;2022-12-07T02:44:24;5.20;54.40
3067;DHT22;1544;48.834;9.194;2022-12-07T02:47:03;5.20;55.10
3067;DHT22;1544;48.834;9.194;2022-12-07T02:49:42;5.20;55.70
3067;DHT22;1544;48.834;9.194;2022-12-07T02:52:17;5.20;55.30
3067;DHT22;1544;48.834;9.194;2022-12-07T02:54:52;5.20;54.70
3067;DHT22;1544;48.834;9.194;2022-12-07T02:57:48;5.30;54.50
3067;DHT22;1544;48.834;9.194;2022-12-07T03:00:25;5.20;54.20
3067;DHT22;1544;48.834;9.194;2022-12-07T03:03:04;5.20;54.60
3067;DHT22;1544;48.834;9.194;2022-12-07T03:06:04;5.20;55.10
3067;DHT22;1544;48.834;9.194;2022-12-07T03:09:14;5.20;55.10
3067;DHT22;1544;48.834;9.194;2022-12-07T03:12:12;5.30;54.00
3067;DHT22;1544;48.834;9.194;2022-12-07T03:14:55;5.30;54.30
3067;DHT22;1544;48.834;9.194;2022-12-07T03:17:54;5.30;53.60
3067;DHT22;1544;48.834;9.194;2022-12-07T03:20:33;5.30;53.60
3067;DHT22;1544;48.834;9.194;2022-12-07T03:23:10;5.30;53.70
3067;DHT22;1544;48.834;9.194;2022-12-07T03:25:49;5.30;54.00
3067;DHT22;1544;48.834;9.194;2022-12-07T03:28:38;5.30;53.50
3067;DHT22;1544;48.834;9.194;2022-12-07T03:31:24;5.30;53.40
3067;DHT22;1544;48.834;9.194;2022-12-07T03:37:18;5.30;53.20
3067;DHT22;1544;48.834;9.194;2022-12-07T03:40:12;5.30;52.90
3067;DHT22;1544;48.834;9.194;2022-12-07T03:43:01;5.20;52.90
3067;DHT22;1544;48.834;9.194;2022-12-07T03:45:42;5.30;52.20
3067;DHT22;1544;48.834;9.194;2022-12-07T03:48:35;5.30;51.40
3067;DHT22;1544;48.834;9.194;2022-12-07T03:57:19;5.30;51.00
3067;DHT22;1544;48.834;9.194;2022-12-07T03:59:57;5.20;50.80
3067;DHT22;1544;48.834;9.194;2022-12-07T04:02:33;5.30;50.50
3067;DHT22;1544;48.834;9.194;2022-12-07T04:05:08;5.30;49.60
3067;DHT22;1544;48.834;9.194;2022-12-07T04:07:44;5.20;49.40
3067;DHT22;1544;48.834;9.194;2022-12-07T04:10:19;5.20;49.30
3067;DHT22;1544;48.834;9.194;2022-12-07T04:12:55;5.10;49.30
3067;DHT22;1544;48.834;9.194;2022-12-07T04:15:30;5.10;49.30
3067;DHT22;1544;48.834;9.194;2022-12-07T04:18:05;5.10;49.30
3067;DHT22;1544;48.834;9.194;2022-12-07T04:20:40;5.00;49.20
3067;DHT22;1544;48.834;9.194;2022-12-07T04:23:15;5.00;49.60
3067;DHT22;1544;48.834;9.194;2022-12-07T04:25:50;4.90;49.80
3067;DHT22;1544;48.834;9.194;2022-12-07T04:28:25;4.90;50.00
3067;DHT22;1544;48.834;9.194;2022-12-07T04:31:00;4.90;49.80
3067;DHT22;1544;48.834;9.194;2022-12-07T04:33:35;4.90;49.80
3067;DHT22;1544;48.834;9.194;2022-12-07T04:36:11;4.90;49.30
3067;DHT22;1544;48.834;9.194;2022-12-07T04:38:46;4.90;49.10
3067;DHT22;1544;48.834;9.194;2022-12-07T04:41:22;5.00;48.70
3067;DHT22;1544;48.834;9.194;2022-12-07T04:44:03;5.00;48.20
3067;DHT22;1544;48.834;9.194;2022-12-07T04:46:42;5.00;47.80
3067;DHT22;1544;48.834;9.194;2022-12-07T04:49:18;5.00;47.10
3067;DHT22;1544;48.834;9.194;2022-12-07T04:51:54;4.90;46.50
3067;DHT22;1544;48.834;9.194;2022-12-07T04:54:29;4.90;46.50
3067;DHT22;1544;48.834;9.194;2022-12-07T04:57:04;4.80;45.80
3067;DHT22;1544;48.834;9.194;2022-12-07T04:59:39;4.80;45.30
3067;DHT22;1544;48.834;9.194;2022-12-07T05:02:19;4.80;45.40
3067;DHT22;1544;48.834;9.194;2022-12-07T05:04:54;4.80;45.40
3067;DHT22;1544;48.834;9.194;2022-12-07T05:07:29;4.80;45.20
3067;DHT22;1544;48.834;9.194;2022-12-07T05:10:05;4.80;45.00
3067;DHT22;1544;48.834;9.194;2022-12-07T05:12:40;4.80;45.00
3067;DHT22;1544;48.834;9.194;2022-12-07T05:15:15;4.80;45.20
3067;DHT22;1544;48.834;9.194;2022-12-07T05:17:50;4.80;45.00
3067;DHT22;1544;48.834;9.194;2022-12-07T05:20:26;4.80;44.90
3067;DHT22;1544;48.834;9.194;2022-12-07T05:23:02;4.70;45.10
3067;DHT22;1544;48.834;9.194;2022-12-07T05:25:37;4.70;45.20
3067;DHT22;1544;48.834;9.194;2022-12-07T05:28:12;4.60;45.50
3067;DHT22;1544;48.834;9.194;2022-12-07T05:30:47;4.60;46.00
3067;DHT22;1544;48.834;9.194;2022-12-07T05:33:22;4.50;46.50
3067;DHT22;1544;48.834;9.194;2022-12-07T05:35:57;4.50;47.00
3067;DHT22;1544;48.834;9.194;2022-12-07T05:38:33;4.40;47.20
3067;DHT22;1544;48.834;9.194;2022-12-07T05:41:08;4.40;47.60
3067;DHT22;1544;48.834;9.194;2022-12-07T05:44:06;4.40;47.80
3067;DHT22;1544;48.834;9.194;2022-12-07T05:46:41;4.40;48.00
3067;DHT22;1544;48.834;9.194;2022-12-07T05:49:16;4.40;48.30
3067;DHT22;1544;48.834;9.194;2022-12-07T05:51:51;4.50;48.50
3067;DHT22;1544;48.834;9.194;2022-12-07T05:54:26;4.50;48.60
3067;DHT22;1544;48.834;9.194;2022-12-07T05:57:01;4.50;48.90
3067;DHT22;1544;48.834;9.194;2022-12-07T05:59:36;4.50;48.90
3067;DHT22;1544;48.834;9.194;2022-12-07T06:02:13;4.60;49.00
3067;DHT22;1544;48.834;9.194;2022-12-07T06:04:49;4.60;49.10
3067;DHT22;1544;48.834;9.194;2022-12-07T06:07:24;4.60;49.20
3067;DHT22;1544;48.834;9.194;2022-12-07T06:09:59;4.60;49.50
3067;DHT22;1544;48.834;9.194;2022-12-07T06:12:35;4.70;49.40
3067;DHT22;1544;48.834;9.194;2022-12-07T06:15:12;4.60;49.40
3067;DHT22;1544;48.834;9.194;2022-12-07T06:17:48;4.70;49.50
3067;DHT22;1544;48.834;9.194;2022-12-07T06:20:22;4.70;49.30
3067;DHT22;1544;48.834;9.194;2022-12-07T06:22:57;4.70;49.50
3067;DHT22;1544;48.834;9.194;2022-12-07T06:25:33;4.70;49.60
3067;DHT22;1544;48.834;9.194;2022-12-07T06:28:07;4.80;49.40
3067;DHT22;1544;48.834;9.194;2022-12-07T06:30:43;4.80;49.30
3067;DHT22;1544;48.834;9.194;2022-12-07T06:33:19;4.80;49.00
3067;DHT22;1544;48.834;9.194;2022-12-07T06:35:54;4.80;49.20
3067;DHT22;1544;48.834;9.194;2022-12-07T06:38:30;4.80;48.70
3067;DHT22;1544;48.834;9.194;2022-12-07T06:41:07;4.80;47.90
3067;DHT22;1544;48.834;9.194;2022-12-07T06:43:43;4.80;46.40
3067;DHT22;1544;48.834;9.194;2022-12-07T06:46:18;4.80;46.60
3067;DHT22;1544;48.834;9.194;2022-12-07T06:48:53;4.90;46.40
3067;DHT22;1544;48.834;9.194;2022-12-07T06:51:28;4.90;45.30
3067;DHT22;1544;48.834;9.194;2022-12-07T06:54:04;4.90;43.70
3067;DHT22;1544;48.834;9.194;2022-12-07T06:56:39;4.90;43.10
3067;DHT22;1544;48.834;9.194;2022-12-07T06:59:14;4.90;43.10
3067;DHT22;1544;48.834;9.194;2022-12-07T07:01:49;4.90;42.90
3067;DHT22;1544;48.834;9.194;2022-12-07T07:04:24;4.90;42.40
3067;DHT22;1544;48.834;9.194;2022-12-07T07:06:59;4.90;41.90
3067;DHT22;1544;48.834;9.194;2022-12-07T07:09:34;4.90;42.00
3067;DHT22;1544;48.834;9.194;2022-12-07T07:12:09;4.90;41.90
3067;DHT22;1544;48.834;9.194;2022-12-07T07:14:44;4.90;41.70
3067;DHT22;1544;48.834;9.194;2022-12-07T07:17:19;4.90;41.60
3067;DHT22;1544;48.834;9.194;2022-12-07T07:19:54;4.30;40.80
3067;DHT22;1544;48.834;9.194;2022-12-07T07:22:29;5.00;41.30
3067;DHT22;1544;48.834;9.194;2022-12-07T07:25:04;5.10;41.10
3067;DHT22;1544;48.834;9.194;2022-12-07T07:27:40;5.00;40.30
3067;DHT22;1544;48.834;9.194;2022-12-07T07:30:15;5.00;39.90
3067;DHT22;1544;48.834;9.194;2022-12-07T07:32:50;5.00;39.70
3067;DHT22;1544;48.834;9.194;2022-12-07T07:35:26;5.10;39.40
3067;DHT22;1544;48.834;9.194;2022-12-07T07:38:02;5.10;38.80
3067;DHT22;1544;48.834;9.194;2022-12-07T07:40:37;5.10;38.40
3067;DHT22;1544;48.834;9.194;2022-12-07T07:43:12;5.10;37.90
3067;DHT22;1544;48.834;9.194;2022-12-07T07:45:47;5.00;37.80
3067;DHT22;1544;48.834;9.194;2022-12-07T07:48:22;5.00;37.90
3067;DHT22;1544;48.834;9.194;2022-12-07T07:50:59;5.10;37.60
3067;DHT22;1544;48.834;9.194;2022-12-07T07:53:34;5.10;37.40
3067;DHT22;1544;48.834;9.194;2022-12-07T07:56:09;5.70;37.40
3067;DHT22;1544;48.834;9.194;2022-12-07T07:58:44;5.20;36.90
3067;DHT22;1544;48.834;9.194;2022-12-07T08:01:19;5.30;37.00
3067;DHT22;1544;48.834;9.194;2022-12-07T08:03:54;5.40;36.80
3067;DHT22;1544;48.834;9.194;2022-12-07T08:06:29;5.50;36.80
3067;DHT22;1544;48.834;9.194;2022-12-07T08:09:06;5.50;36.90
3067;DHT22;1544;48.834;9.194;2022-12-07T08:11:41;5.60;36.50
3067;DHT22;1544;48.834;9.194;2022-12-07T08:14:16;5.60;36.50
3067;DHT22;1544;48.834;9.194;2022-12-07T08:16:51;5.70;36.20
3067;DHT22;1544;48.834;9.194;2022-12-07T08:19:26;5.70;35.50
3067;DHT22;1544;48.834;9.194;2022-12-07T08:22:01;5.70;35.40
3067;DHT22;1544;48.834;9.194;2022-12-07T08:24:36;7.60;36.80
3067;DHT22;1544;48.834;9.194;2022-12-07T08:27:11;5.70;35.30
3067;DHT22;1544;48.834;9.194;2022-12-07T08:29:47;5.70;35.10
3067;DHT22;1544;48.834;9.194;2022-12-07T08:32:22;5.80;34.80
3067;DHT22;1544;48.834;9.194;2022-12-07T08:34:57;5.90;34.70
3067;DHT22;1544;48.834;9.194;2022-12-07T08:37:32;5.90;34.40
3067;DHT22;1544;48.834;9.194;2022-12-07T08:40:09;6.00;34.20
3067;DHT22;1544;48.834;9.194;2022-12-07T08:42:49;6.00;34.20
3067;DHT22;1544;48.834;9.194;2022-12-07T08:45:24;6.00;34.40
3067;DHT22;1544;48.834;9.194;2022-12-07T08:48:08;6.00;34.40
3067;DHT22;1544;48.834;9.194;2022-12-07T08:50:45;6.00;34.20
3067;DHT22;1544;48.834;9.194;2022-12-07T08:53:23;6.10;33.90
3067;DHT22;1544;48.834;9.194;2022-12-07T08:55:58;6.10;34.00
3067;DHT22;1544;48.834;9.194;2022-12-07T08:58:34;6.10;34.10
3067;DHT22;1544;48.834;9.194;2022-12-07T09:01:10;6.20;34.10
3067;DHT22;1544;48.834;9.194;2022-12-07T09:03:45;6.30;33.50
3067;DHT22;1544;48.834;9.194;2022-12-07T09:06:20;6.30;34.20
3067;DHT22;1544;48.834;9.194;2022-12-07T09:08:58;6.30;33.80
3067;DHT22;1544;48.834;9.194;2022-12-07T09:11:35;6.30;34.00
3067;DHT22;1544;48.834;9.194;2022-12-07T09:14:10;6.40;33.50
3067;DHT22;1544;48.834;9.194;2022-12-07T09:16:45;6.30;33.50
3067;DHT22;1544;48.834;9.194;2022-12-07T09:19:20;6.40;33.50
3067;DHT22;1544;48.834;9.194;2022-12-07T09:21:55;6.50;33.40
3067;DHT22;1544;48.834;9.194;2022-12-07T09:24:33;6.50;33.00
3067;DHT22;1544;48.834;9.194;2022-12-07T09:27:08;6.50;33.00
3067;DHT22;1544;48.834;9.194;2022-12-07T09:29:43;6.40;33.10
3067;DHT22;1544;48.834;9.194;2022-12-07T09:32:18;6.40;33.30
3067;DHT22;1544;48.834;9.194;2022-12-07T09:34:53;6.60;33.50
3067;DHT22;1544;48.834;9.194;2022-12-07T09:37:28;6.70;33.30
3067;DHT22;1544;48.834;9.194;2022-12-07T09:40:04;6.80;33.00
3067;DHT22;1544;48.834;9.194;2022-12-07T09:42:47;6.90;33.00
3067;DHT22;1544;48.834;9.194;2022-12-07T09:45:29;6.80;33.10
3067;DHT22;1544;48.834;9.194;2022-12-07T09:48:18;6.80;33.10
3067;DHT22;1544;48.834;9.194;2022-12-07T09:50:57;7.00;33.00
3067;DHT22;1544;48.834;9.194;2022-12-07T09:53:36;7.10;33.20
3067;DHT22;1544;48.834;9.194;2022-12-07T09:56:17;7.10;33.20
3067;DHT22;1544;48.834;9.194;2022-12-07T09:58:59;7.20;33.30
3067;DHT22;1544;48.834;9.194;2022-12-07T10:01:38;7.30;33.20
3067;DHT22;1544;48.834;9.194;2022-12-07T10:06:58;7.30;32.80
3067;DHT22;1544;48.834;9.194;2022-12-07T10:09:33;7.40;33.00
3067;DHT22;1544;48.834;9.194;2022-12-07T10:12:11;7.30;33.00
3067;DHT22;1544;48.834;9.194;2022-12-07T10:15:00;7.30;33.10
3067;DHT22;1544;48.834;9.194;2022-12-07T10:17:48;7.40;32.90
3067;DHT22;1544;48.834;9.194;2022-12-07T10:20:26;7.40;32.70
3067;DHT22;1544;48.834;9.194;2022-12-07T10:23:04;7.40;33.40
3067;DHT22;1544;48.834;9.194;2022-12-07T10:25:43;6.00;31.90
3067;DHT22;1544;48.834;9.194;2022-12-07T10:28:19;7.50;33.10
3067;DHT22;1544;48.834;9.194;2022-12-07T10:30:59;7.50;32.90
3067;DHT22;1544;48.834;9.194;2022-12-07T10:33:57;7.50;33.00
3067;DHT22;1544;48.834;9.194;2022-12-07T10:36:38;7.50;33.10
3067;DHT22;1544;48.834;9.194;2022-12-07T10:39:19;7.50;33.20
3067;DHT22;1544;48.834;9.194;2022-12-07T10:42:03;7.50;33.30
3067;DHT22;1544;48.834;9.194;2022-12-07T10:44:38;7.60;33.50
3067;DHT22;1544;48.834;9.194;2022-12-07T10:47:43;7.60;33.60
3067;DHT22;1544;48.834;9.194;2022-12-07T10:59:42;7.80;33.80
3067;DHT22;1544;48.834;9.194;2022-12-07T11:02:48;7.80;34.10
3067;DHT22;1544;48.834;9.194;2022-12-07T11:14:25;8.00;34.50
3067;DHT22;1544;48.834;9.194;2022-12-07T11:17:04;7.90;34.70
3067;DHT22;1544;48.834;9.194;2022-12-07T11:26:06;7.80;35.10
3067;DHT22;1544;48.834;9.194;2022-12-07T11:31:57;7.70;35.60
3067;DHT22;1544;48.834;9.194;2022-12-07T11:37:59;7.70;36.00
3067;DHT22;1544;48.834;9.194;2022-12-07T11:40:37;7.60;36.10
3067;DHT22;1544;48.834;9.194;2022-12-07T11:46:10;7.50;36.40
3067;DHT22;1544;48.834;9.194;2022-12-07T11:48:53;7.40;36.50
3067;DHT22;1544;48.834;9.194;2022-12-07T11:51:33;7.40;36.40
3067;DHT22;1544;48.834;9.194;2022-12-07T11:54:17;7.40;36.60
3067;DHT22;1544;48.834;9.194;2022-12-07T11:57:02;7.40;36.60
3067;DHT22;1544;48.834;9.194;2022-12-07T11:59:45;7.50;36.60
3067;DHT22;1544;48.834;9.194;2022-12-07T12:02:31;7.50;36.60
3067;DHT22;1544;48.834;9.194;2022-12-07T12:05:23;7.40;35.60
3067;DHT22;1544;48.834;9.194;2022-12-07T12:08:27;7.30;35.90
3067;DHT22;1544;48.834;9.194;2022-12-07T12:17:26;7.10;36.60
3067;DHT22;1544;48.834;9.194;2022-12-07T12:20:36;7.10;36.70
3067;DHT22;1544;48.834;9.194;2022-12-07T12:23:33;7.10;36.30
3067;DHT22;1544;48.834;9.194;2022-12-07T12:26:21;7.10;36.30
3067;DHT22;1544;48.834;9.194;2022-12-07T12:28:58;7.10;36.50
3067;DHT22;1544;48.834;9.194;2022-12-07T12:31:38;7.10;36.50
3067;DHT22;1544;48.834;9.194;2022-12-07T12:34:37;7.20;36.70
3067;DHT22;1544;48.834;9.194;2022-12-07T12:42:52;7.30;36.60
3067;DHT22;1544;48.834;9.194;2022-12-07T12:45:30;7.40;36.30
3067;DHT22;1544;48.834;9.194;2022-12-07T12:48:30;7.40;35.90
3067;DHT22;1544;48.834;9.194;2022-12-07T12:51:39;7.40;35.80
3067;DHT22;1544;48.834;9.194;2022-12-07T12:57:09;7.30;35.90
3067;DHT22;1544;48.834;9.194;2022-12-07T13:10:44;7.10;36.30
3067;DHT22;1544;48.834;9.194;2022-12-07T13:18:44;7.10;36.20
3067;DHT22;1544;48.834;9.194;2022-12-07T13:23:58;7.00;36.40
3067;DHT22;1544;48.834;9.194;2022-12-07T13:26:37;6.90;36.50
3067;DHT22;1544;48.834;9.194;2022-12-07T13:29:19;7.00;36.80
3067;DHT22;1544;48.834;9.194;2022-12-07T13:31:56;7.00;36.90
3067;DHT22;1544;48.834;9.194;2022-12-07T13:34:39;7.00;36.80
3067;DHT22;1544;48.834;9.194;2022-12-07T13:37:27;6.90;36.80
3067;DHT22;1544;48.834;9.194;2022-12-07T13:40:21;6.90;37.00
3067;DHT22;1544;48.834;9.194;2022-12-07T13:43:02;6.80;37.30
3067;DHT22;1544;48.834;9.194;2022-12-07T13:45:39;6.80;37.60
3067;DHT22;1544;48.834;9.194;2022-12-07T13:48:31;6.80;37.40
3067;DHT22;1544;48.834;9.194;2022-12-07T13:51:23;6.90;37.40
3067;DHT22;1544;48.834;9.194;2022-12-07T13:54:06;6.90;37.30
3067;DHT22;1544;48.834;9.194;2022-12-07T13:56:49;6.90;37.30
3067;DHT22;1544;48.834;9.194;2022-12-07T13:59:26;7.00;37.30
3067;DHT22;1544;48.834;9.194;2022-12-07T14:02:01;7.10;37.00
3067;DHT22;1544;48.834;9.194;2022-12-07T14:04:37;7.10;36.90
3067;DHT22;1544;48.834;9.194;2022-12-07T14:07:27;7.10;37.10
3067;DHT22;1544;48.834;9.194;2022-12-07T14:10:05;7.20;37.20
3067;DHT22;1544;48.834;9.194;2022-12-07T14:12:42;7.30;37.00
3067;DHT22;1544;48.834;9.194;2022-12-07T14:15:23;7.40;36.70
3067;DHT22;1544;48.834;9.194;2022-12-07T14:18:02;7.40;36.30
3067;DHT22;1544;48.834;9.194;2022-12-07T14:20:41;7.50;36.40
3067;DHT22;1544;48.834;9.194;2022-12-07T14:23:25;7.60;36.40
3067;DHT22;1544;48.834;9.194;2022-12-07T14:26:15;7.60;36.20
3067;DHT22;1544;48.834;9.194;2022-12-07T14:29:27;7.60;36.20
3067;DHT22;1544;48.834;9.194;2022-12-07T14:32:31;7.60;36.10
3067;DHT22;1544;48.834;9.194;2022-12-07T14:35:12;7.60;36.20
3067;DHT22;1544;48.834;9.194;2022-12-07T14:37:48;7.60;36.20
3067;DHT22;1544;48.834;9.194;2022-12-07T14:40:28;7.60;36.00
3067;DHT22;1544;48.834;9.194;2022-12-07T14:43:08;7.60;35.90
3067;DHT22;1544;48.834;9.194;2022-12-07T14:45:45;7.50;35.70
3067;DHT22;1544;48.834;9.194;2022-12-07T14:48:20;7.50;35.90
3067;DHT22;1544;48.834;9.194;2022-12-07T14:51:15;7.40;35.70
3067;DHT22;1544;48.834;9.194;2022-12-07T14:54:15;7.40;35.70
3067;DHT22;1544;48.834;9.194;2022-12-07T14:56:53;7.20;35.80
3067;DHT22;1544;48.834;9.194;2022-12-07T14:59:28;7.10;36.00
3067;DHT22;1544;48.834;9.194;2022-12-07T15:02:03;7.00;35.90
3067;DHT22;1544;48.834;9.194;2022-12-07T15:04:39;7.00;36.10
3067;DHT22;1544;48.834;9.194;2022-12-07T15:07:20;6.90;36.30
3067;DHT22;1544;48.834;9.194;2022-12-07T15:09:55;6.90;36.50
3067;DHT22;1544;48.834;9.194;2022-12-07T15:12:30;6.90;36.80
3067;DHT22;1544;48.834;9.194;2022-12-07T15:15:06;6.80;37.00
3067;DHT22;1544;48.834;9.194;2022-12-07T15:17:41;6.70;37.20
3067;DHT22;1544;48.834;9.194;2022-12-07T15:20:16;6.70;37.60
3067;DHT22;1544;48.834;9.194;2022-12-07T15:22:52;6.70;37.80
3067;DHT22;1544;48.834;9.194;2022-12-07T15:25:27;6.70;37.90
3067;DHT22;1544;48.834;9.194;2022-12-07T15:28:01;6.60;38.20
3067;DHT22;1544;48.834;9.194;2022-12-07T15:30:38;6.60;37.80
3067;DHT22;1544;48.834;9.194;2022-12-07T15:33:13;6.60;38.10
3067;DHT22;1544;48.834;9.194;2022-12-07T15:35:48;6.60;38.20
3067;DHT22;1544;48.834;9.194;2022-12-07T15:38:23;6.50;38.30
3067;DHT22;1544;48.834;9.194;2022-12-07T15:41:21;6.50;38.40
3067;DHT22;1544;48.834;9.194;2022-12-07T15:43:56;6.50;38.40
3067;DHT22;1544;48.834;9.194;2022-12-07T15:46:50;6.40;38.60
3067;DHT22;1544;48.834;9.194;2022-12-07T15:49:25;6.30;38.60
3067;DHT22;1544;48.834;9.194;2022-12-07T15:52:01;6.20;38.90
3067;DHT22;1544;48.834;9.194;2022-12-07T15:54:36;6.20;39.00
3067;DHT22;1544;48.834;9.194;2022-12-07T15:57:11;6.20;39.10
3067;DHT22;1544;48.834;9.194;2022-12-07T15:59:46;6.20;39.10
3067;DHT22;1544;48.834;9.194;2022-12-07T16:02:20;6.20;39.30
3067;DHT22;1544;48.834;9.194;2022-12-07T16:04:57;6.10;39.20
3067;DHT22;1544;48.834;9.194;2022-12-07T16:07:32;6.10;39.20
3067;DHT22;1544;48.834;9.194;2022-12-07T16:10:07;6.00;39.10
3067;DHT22;1544;48.834;9.194;2022-12-07T16:12:42;6.00;39.00
3067;DHT22;1544;48.834;9.194;2022-12-07T16:15:19;5.90;39.30
3067;DHT22;1544;48.834;9.194;2022-12-07T16:17:58;7.60;40.70
3067;DHT22;1544;48.834;9.194;2022-12-07T16:20:33;5.90;39.30
3067;DHT22;1544;48.834;9.194;2022-12-07T16:23:08;5.80;39.30
3067;DHT22;1544;48.834;9.194;2022-12-07T16:25:43;5.80;39.30
3067;DHT22;1544;48.834;9.194;2022-12-07T16:28:18;5.80;39.50
3067;DHT22;1544;48.834;9.194;2022-12-07T16:31:04;5.70;39.50
3067;DHT22;1544;48.834;9.194;2022-12-07T16:33:43;5.70;39.60
3067;DHT22;1544;48.834;9.194;2022-12-07T16:36:18;5.70;39.50
3067;DHT22;1544;48.834;9.194;2022-12-07T16:39:13;5.60;39.40
3067;DHT22;1544;48.834;9.194;2022-12-07T16:41:48;5.50;39.40
3067;DHT22;1544;48.834;9.194;2022-12-07T16:44:24;5.50;39.70
3067;DHT22;1544;48.834;9.194;2022-12-07T16:46:59;5.40;39.70
3067;DHT22;1544;48.834;9.194;2022-12-07T16:49:35;5.30;39.40
3067;DHT22;1544;48.834;9.194;2022-12-07T16:52:10;5.20;39.70
3067;DHT22;1544;48.834;9.194;2022-12-07T16:54:55;5.10;40.30
3067;DHT22;1544;48.834;9.194;2022-12-07T16:57:30;5.10;40.60
3067;DHT22;1544;48.834;9.194;2022-12-07T17:00:07;5.00;40.70
3067;DHT22;1544;48.834;9.194;2022-12-07T17:02:42;4.90;41.10
3067;DHT22;1544;48.834;9.194;2022-12-07T17:05:17;5.00;41.20
3067;DHT22;1544;48.834;9.194;2022-12-07T17:07:52;4.90;41.00
3067;DHT22;1544;48.834;9.194;2022-12-07T17:10:27;4.90;41.40
3067;DHT22;1544;48.834;9.194;2022-12-07T17:13:05;4.90;41.60
3067;DHT22;1544;48.834;9.194;2022-12-07T17:16:07;4.90;42.10
3067;DHT22;1544;48.834;9.194;2022-12-07T17:18:42;4.90;42.10
3067;DHT22;1544;48.834;9.194;2022-12-07T17:21:17;5.00;42.20
3067;DHT22;1544;48.834;9.194;2022-12-07T17:23:52;5.00;41.90
3067;DHT22;1544;48.834;9.194;2022-12-07T17:26:28;5.10;41.70
3067;DHT22;1544;48.834;9.194;2022-12-07T17:29:11;5.20;41.50
3067;DHT22;1544;48.834;9.194;2022-12-07T17:31:47;5.30;41.20
3067;DHT22;1544;48.834;9.194;2022-12-07T17:34:25;5.30;40.80
3067;DHT22;1544;48.834;9.194;2022-12-07T17:37:00;5.30;40.50
3067;DHT22;1544;48.834;9.194;2022-12-07T17:39:35;5.40;40.40
3067;DHT22;1544;48.834;9.194;2022-12-07T17:42:10;5.40;40.30
3067;DHT22;1544;48.834;9.194;2022-12-07T17:45:04;5.50;40.20
3067;DHT22;1544;48.834;9.194;2022-12-07T17:47:41;5.50;39.80
3067;DHT22;1544;48.834;9.194;2022-12-07T17:50:16;5.50;39.40
3067;DHT22;1544;48.834;9.194;2022-12-07T17:53:11;5.50;39.00
3067;DHT22;1544;48.834;9.194;2022-12-07T17:55:46;5.50;39.00
3067;DHT22;1544;48.834;9.194;2022-12-07T17:58:41;5.50;39.10
3067;DHT22;1544;48.834;9.194;2022-12-07T18:01:16;5.40;39.10
3067;DHT22;1544;48.834;9.194;2022-12-07T18:03:57;5.40;39.10
3067;DHT22;1544;48.834;9.194;2022-12-07T18:06:33;5.40;39.30
3067;DHT22;1544;48.834;9.194;2022-12-07T18:09:09;5.40;39.60
3067;DHT22;1544;48.834;9.194;2022-12-07T18:11:44;5.30;40.10
3067;DHT22;1544;48.834;9.194;2022-12-07T18:14:19;5.40;40.40
3067;DHT22;1544;48.834;9.194;2022-12-07T18:16:54;5.40;40.60
3067;DHT22;1544;48.834;9.194;2022-12-07T18:19:30;5.40;40.80
3067;DHT22;1544;48.834;9.194;2022-12-07T18:22:05;5.50;40.60
3067;DHT22;1544;48.834;9.194;2022-12-07T18:24:40;5.50;40.50
3067;DHT22;1544;48.834;9.194;2022-12-07T18:27:15;5.50;40.50
3067;DHT22;1544;48.834;9.194;2022-12-07T18:29:50;5.50;40.70
3067;DHT22;1544;48.834;9.194;2022-12-07T18:32:26;5.50;40.90
3067;DHT22;1544;48.834;9.194;2022-12-07T18:35:04;5.50;41.00
3067;DHT22;1544;48.834;9.194;2022-12-07T18:37:41;5.50;40.90
3067;DHT22;1544;48.834;9.194;2022-12-07T18:40:16;5.60;40.70
3067;DHT22;1544;48.834;9.194;2022-12-07T18:42:51;5.60;40.70
3067;DHT22;1544;48.834;9.194;2022-12-07T18:45:26;5.60;40.40
3067;DHT22;1544;48.834;9.194;2022-12-07T18:48:02;5.60;40.40
3067;DHT22;1544;48.834;9.194;2022-12-07T18:50:37;5.60;40.40
3067;DHT22;1544;48.834;9.194;2022-12-07T18:53:12;5.70;40.50
3067;DHT22;1544;48.834;9.194;2022-12-07T18:55:47;5.60;40.30
3067;DHT22;1544;48.834;9.194;2022-12-07T18:58:22;5.60;40.30
3067;DHT22;1544;48.834;9.194;2022-12-07T19:00:57;5.70;40.20
3067;DHT22;1544;48.834;9.194;2022-12-07T19:03:33;5.70;40.20
3067;DHT22;1544;48.834;9.194;2022-12-07T19:06:08;5.80;40.30